sensor_id;sensor_type;location;lat;lon;timestamp;P1;durP1;ratioP1;P2;durP2;ratioP2
72408;SDS011;60402;48.082;11.628;2023-06-10T00:02:20;8.43;;;4.97;;
72408;SDS011;60402;48.082;11.628;2023-06-10T00:05:05;8.88;;;5.00;;
72408;SDS011;60402;48.082;11.628;2023-06-10T00:07:53;10.40;;;5.32;;
72408;SDS011;60402;48.082;11.628;2023-06-10T00:10:40;10.35;;;5.22;;
72408;SDS011;60402;48.082;11.628;2023-06-10T00:13:26;9.25;;;5.20;;
72408;SDS011;60402;48.082;11.628;2023-06-10T00:16:12;8.23;;;5.03;;
72408;SDS011;60402;48.082;11.628;2023-06-10T00:19:01;8.32;;;5.35;;
72408;SDS011;60402;48.082;11.628;2023-06-10T00:21:48;10.30;;;5.72;;
72408;SDS011;60402;48.082;11.628;2023-06-10T00:24:36;8.07;;;5.30;;
72408;SDS011;60402;48.082;11.628;2023-06-10T00:27:22;9.05;;;5.85;;
72408;SDS011;60402;48.082;11.628;2023-06-10T00:30:08;9.75;;;5.82;;
72408;SDS011;60402;48.082;11.628;2023-06-10T00:32:54;8.82;;;5.15;;
72408;SDS011;60402;48.082;11.628;2023-06-10T00:35:39;8.27;;;5.30;;
72408;SDS011;60402;48.082;11.628;2023-06-10T00:38:25;9.10;;;5.28;;
72408;SDS011;60402;48.082;11.628;2023-06-10T00:41:11;8.70;;;5.18;;
72408;SDS011;60402;48.082;11.628;2023-06-10T00:43:57;8.82;;;4.93;;
72408;SDS011;60402;48.082;11.628;2023-06-10T00:46:42;9.40;;;5.57;;
72408;SDS011;60402;48.082;11.628;2023-06-10T00:49:29;9.45;;;5.95;;
72408;SDS011;60402;48.082;11.628;2023-06-10T00:52:14;8.35;;;5.22;;
72408;SDS011;60402;48.082;11.628;2023-06-10T00:55:03;9.02;;;5.45;;
72408;SDS011;60402;48.082;11.628;2023-06-10T00:57:49;8.55;;;5.50;;
72408;SDS011;60402;48.082;11.628;2023-06-10T01:00:36;8.95;;;5.82;;
72408;SDS011;60402;48.082;11.628;2023-06-10T01:03:22;9.45;;;6.05;;
72408;SDS011;60402;48.082;11.628;2023-06-10T01:06:21;9.30;;;5.95;;
72408;SDS011;60402;48.082;11.628;2023-06-10T01:09:22;9.18;;;5.90;;
72408;SDS011;60402;48.082;11.628;2023-06-10T01:12:26;10.25;;;5.75;;
72408;SDS011;60402;48.082;11.628;2023-06-10T01:15:22;8.52;;;5.30;;
72408;SDS011;60402;48.082;11.628;2023-06-10T01:18:08;9.57;;;5.20;;
72408;SDS011;60402;48.082;11.628;2023-06-10T01:20:56;7.72;;;5.00;;
72408;SDS011;60402;48.082;11.628;2023-06-10T01:23:41;9.00;;;5.95;;
72408;SDS011;60402;48.082;11.628;2023-06-10T01:26:30;11.48;;;6.45;;
72408;SDS011;60402;48.082;11.628;2023-06-10T01:29:18;10.45;;;5.97;;
72408;SDS011;60402;48.082;11.628;2023-06-10T01:32:21;10.95;;;6.40;;
72408;SDS011;60402;48.082;11.628;2023-06-10T01:35:12;8.23;;;5.50;;
72408;SDS011;60402;48.082;11.628;2023-06-10T01:37:59;9.68;;;5.57;;
72408;SDS011;60402;48.082;11.628;2023-06-10T01:40:48;9.07;;;5.80;;
72408;SDS011;60402;48.082;11.628;2023-06-10T01:43:37;8.98;;;5.63;;
72408;SDS011;60402;48.082;11.628;2023-06-10T01:46:23;10.20;;;5.80;;
72408;SDS011;60402;48.082;11.628;2023-06-10T01:49:09;9.18;;;6.10;;
72408;SDS011;60402;48.082;11.628;2023-06-10T01:51:54;9.20;;;5.97;;
72408;SDS011;60402;48.082;11.628;2023-06-10T01:54:40;9.68;;;5.85;;
72408;SDS011;60402;48.082;11.628;2023-06-10T01:57:26;9.40;;;5.75;;
72408;SDS011;60402;48.082;11.628;2023-06-10T02:00:11;9.77;;;5.55;;
72408;SDS011;60402;48.082;11.628;2023-06-10T02:02:58;9.88;;;6.05;;
72408;SDS011;60402;48.082;11.628;2023-06-10T02:05:44;8.88;;;5.85;;
72408;SDS011;60402;48.082;11.628;2023-06-10T02:08:29;9.98;;;6.18;;
72408;SDS011;60402;48.082;11.628;2023-06-10T02:11:15;8.73;;;5.80;;
72408;SDS011;60402;48.082;11.628;2023-06-10T02:14:01;10.80;;;6.28;;
72408;SDS011;60402;48.082;11.628;2023-06-10T02:16:46;11.45;;;6.07;;
72408;SDS011;60402;48.082;11.628;2023-06-10T02:19:33;9.73;;;5.55;;
72408;SDS011;60402;48.082;11.628;2023-06-10T02:22:22;9.30;;;5.70;;
72408;SDS011;60402;48.082;11.628;2023-06-10T02:25:09;10.55;;;6.10;;
72408;SDS011;60402;48.082;11.628;2023-06-10T02:27:55;10.13;;;6.50;;
72408;SDS011;60402;48.082;11.628;2023-06-10T02:30:41;9.65;;;5.88;;
72408;SDS011;60402;48.082;11.628;2023-06-10T02:33:27;9.93;;;6.22;;
72408;SDS011;60402;48.082;11.628;2023-06-10T02:36:13;11.40;;;6.28;;
72408;SDS011;60402;48.082;11.628;2023-06-10T02:39:00;10.15;;;6.18;;
72408;SDS011;60402;48.082;11.628;2023-06-10T02:41:46;10.13;;;5.90;;
72408;SDS011;60402;48.082;11.628;2023-06-10T02:44:32;10.73;;;6.20;;
72408;SDS011;60402;48.082;11.628;2023-06-10T02:47:18;10.18;;;6.00;;
72408;SDS011;60402;48.082;11.628;2023-06-10T02:50:04;10.10;;;6.15;;
72408;SDS011;60402;48.082;11.628;2023-06-10T02:52:50;9.95;;;5.93;;
72408;SDS011;60402;48.082;11.628;2023-06-10T02:55:35;12.18;;;6.90;;
72408;SDS011;60402;48.082;11.628;2023-06-10T02:58:21;9.50;;;6.40;;
72408;SDS011;60402;48.082;11.628;2023-06-10T03:01:07;10.27;;;6.38;;
72408;SDS011;60402;48.082;11.628;2023-06-10T03:03:55;9.35;;;6.32;;
72408;SDS011;60402;48.082;11.628;2023-06-10T03:06:41;11.38;;;6.28;;
72408;SDS011;60402;48.082;11.628;2023-06-10T03:09:27;9.23;;;5.93;;
72408;SDS011;60402;48.082;11.628;2023-06-10T03:12:13;9.23;;;6.05;;
72408;SDS011;60402;48.082;11.628;2023-06-10T03:14:58;11.27;;;6.07;;
72408;SDS011;60402;48.082;11.628;2023-06-10T03:17:44;10.63;;;6.30;;
72408;SDS011;60402;48.082;11.628;2023-06-10T03:20:30;9.73;;;6.28;;
72408;SDS011;60402;48.082;11.628;2023-06-10T03:23:16;9.30;;;5.47;;
72408;SDS011;60402;48.082;11.628;2023-06-10T03:26:02;9.27;;;5.57;;
72408;SDS011;60402;48.082;11.628;2023-06-10T03:28:47;8.27;;;5.22;;
72408;SDS011;60402;48.082;11.628;2023-06-10T03:31:34;9.43;;;5.32;;
72408;SDS011;60402;48.082;11.628;2023-06-10T03:34:22;9.45;;;5.53;;
72408;SDS011;60402;48.082;11.628;2023-06-10T03:37:08;11.00;;;5.78;;
72408;SDS011;60402;48.082;11.628;2023-06-10T03:39:54;11.02;;;6.13;;
72408;SDS011;60402;48.082;11.628;2023-06-10T03:42:40;10.38;;;5.78;;
72408;SDS011;60402;48.082;11.628;2023-06-10T03:45:25;9.25;;;5.88;;
72408;SDS011;60402;48.082;11.628;2023-06-10T03:48:13;10.30;;;6.13;;
72408;SDS011;60402;48.082;11.628;2023-06-10T03:50:59;8.57;;;5.47;;
72408;SDS011;60402;48.082;11.628;2023-06-10T03:53:44;9.88;;;6.00;;
72408;SDS011;60402;48.082;11.628;2023-06-10T03:56:31;10.25;;;6.07;;
72408;SDS011;60402;48.082;11.628;2023-06-10T03:59:16;9.38;;;5.60;;
72408;SDS011;60402;48.082;11.628;2023-06-10T04:02:02;10.13;;;5.88;;
72408;SDS011;60402;48.082;11.628;2023-06-10T04:04:50;9.57;;;5.57;;
72408;SDS011;60402;48.082;11.628;2023-06-10T04:07:36;10.38;;;6.13;;
72408;SDS011;60402;48.082;11.628;2023-06-10T04:10:22;9.90;;;5.70;;
72408;SDS011;60402;48.082;11.628;2023-06-10T04:13:07;8.82;;;5.50;;
72408;SDS011;60402;48.082;11.628;2023-06-10T04:15:54;9.35;;;6.07;;
72408;SDS011;60402;48.082;11.628;2023-06-10T04:18:40;11.10;;;6.63;;
72408;SDS011;60402;48.082;11.628;2023-06-10T04:21:27;12.55;;;7.20;;
72408;SDS011;60402;48.082;11.628;2023-06-10T04:24:12;10.52;;;5.97;;
72408;SDS011;60402;48.082;11.628;2023-06-10T04:26:58;11.18;;;6.65;;
72408;SDS011;60402;48.082;11.628;2023-06-10T04:29:44;10.73;;;6.13;;
72408;SDS011;60402;48.082;11.628;2023-06-10T04:32:30;11.00;;;6.57;;
72408;SDS011;60402;48.082;11.628;2023-06-10T04:35:15;10.25;;;6.70;;
72408;SDS011;60402;48.082;11.628;2023-06-10T04:38:01;11.35;;;7.28;;
72408;SDS011;60402;48.082;11.628;2023-06-10T04:40:48;12.25;;;7.10;;
72408;SDS011;60402;48.082;11.628;2023-06-10T04:43:34;10.75;;;6.38;;
72408;SDS011;60402;48.082;11.628;2023-06-10T04:46:19;11.40;;;6.45;;
72408;SDS011;60402;48.082;11.628;2023-06-10T04:49:05;10.98;;;6.70;;
72408;SDS011;60402;48.082;11.628;2023-06-10T04:51:51;11.95;;;6.57;;
72408;SDS011;60402;48.082;11.628;2023-06-10T04:54:36;9.93;;;6.32;;
72408;SDS011;60402;48.082;11.628;2023-06-10T04:57:22;9.30;;;6.03;;
72408;SDS011;60402;48.082;11.628;2023-06-10T05:00:08;11.18;;;6.00;;
72408;SDS011;60402;48.082;11.628;2023-06-10T05:02:54;8.73;;;5.53;;
72408;SDS011;60402;48.082;11.628;2023-06-10T05:05:41;10.68;;;6.55;;
72408;SDS011;60402;48.082;11.628;2023-06-10T05:08:27;11.82;;;7.07;;
72408;SDS011;60402;48.082;11.628;2023-06-10T05:11:12;12.57;;;7.15;;
72408;SDS011;60402;48.082;11.628;2023-06-10T05:13:58;12.23;;;6.65;;
72408;SDS011;60402;48.082;11.628;2023-06-10T05:16:44;10.73;;;6.20;;
72408;SDS011;60402;48.082;11.628;2023-06-10T05:19:29;13.27;;;6.78;;
72408;SDS011;60402;48.082;11.628;2023-06-10T05:22:15;14.10;;;7.25;;
72408;SDS011;60402;48.082;11.628;2023-06-10T05:25:01;12.45;;;7.03;;
72408;SDS011;60402;48.082;11.628;2023-06-10T05:27:47;11.43;;;7.22;;
72408;SDS011;60402;48.082;11.628;2023-06-10T05:30:33;11.98;;;7.15;;
72408;SDS011;60402;48.082;11.628;2023-06-10T05:33:18;12.48;;;6.68;;
72408;SDS011;60402;48.082;11.628;2023-06-10T05:36:04;13.82;;;7.32;;
72408;SDS011;60402;48.082;11.628;2023-06-10T05:38:50;13.05;;;7.90;;
72408;SDS011;60402;48.082;11.628;2023-06-10T05:41:36;12.98;;;7.35;;
72408;SDS011;60402;48.082;11.628;2023-06-10T05:44:22;14.73;;;7.40;;
72408;SDS011;60402;48.082;11.628;2023-06-10T05:47:07;13.75;;;7.60;;
72408;SDS011;60402;48.082;11.628;2023-06-10T05:49:54;12.60;;;7.38;;
72408;SDS011;60402;48.082;11.628;2023-06-10T05:52:40;13.20;;;7.38;;
72408;SDS011;60402;48.082;11.628;2023-06-10T05:55:26;13.35;;;7.25;;
72408;SDS011;60402;48.082;11.628;2023-06-10T05:58:13;12.73;;;7.22;;
72408;SDS011;60402;48.082;11.628;2023-06-10T06:00:59;13.30;;;7.45;;
72408;SDS011;60402;48.082;11.628;2023-06-10T06:03:45;13.15;;;7.25;;
72408;SDS011;60402;48.082;11.628;2023-06-10T06:06:31;12.32;;;7.22;;
72408;SDS011;60402;48.082;11.628;2023-06-10T06:09:16;13.98;;;7.75;;
72408;SDS011;60402;48.082;11.628;2023-06-10T06:12:02;13.02;;;6.90;;
72408;SDS011;60402;48.082;11.628;2023-06-10T06:14:48;11.45;;;6.82;;
72408;SDS011;60402;48.082;11.628;2023-06-10T06:17:34;13.10;;;7.05;;
72408;SDS011;60402;48.082;11.628;2023-06-10T06:20:20;10.82;;;6.78;;
72408;SDS011;60402;48.082;11.628;2023-06-10T06:23:06;12.15;;;7.00;;
72408;SDS011;60402;48.082;11.628;2023-06-10T06:25:54;11.45;;;6.85;;
72408;SDS011;60402;48.082;11.628;2023-06-10T06:28:39;12.48;;;6.70;;
72408;SDS011;60402;48.082;11.628;2023-06-10T06:31:25;12.98;;;7.13;;
72408;SDS011;60402;48.082;11.628;2023-06-10T06:34:11;11.18;;;6.50;;
72408;SDS011;60402;48.082;11.628;2023-06-10T06:36:56;11.05;;;6.60;;
72408;SDS011;60402;48.082;11.628;2023-06-10T06:39:42;10.75;;;6.25;;
72408;SDS011;60402;48.082;11.628;2023-06-10T06:42:28;11.73;;;6.15;;
72408;SDS011;60402;48.082;11.628;2023-06-10T06:45:13;11.07;;;6.28;;
72408;SDS011;60402;48.082;11.628;2023-06-10T06:48:00;9.75;;;5.88;;
72408;SDS011;60402;48.082;11.628;2023-06-10T06:50:45;10.27;;;6.07;;
72408;SDS011;60402;48.082;11.628;2023-06-10T06:53:32;10.80;;;6.07;;
72408;SDS011;60402;48.082;11.628;2023-06-10T06:56:17;9.60;;;5.70;;
72408;SDS011;60402;48.082;11.628;2023-06-10T06:59:03;10.10;;;5.75;;
72408;SDS011;60402;48.082;11.628;2023-06-10T07:01:49;10.52;;;5.93;;
72408;SDS011;60402;48.082;11.628;2023-06-10T07:04:35;10.52;;;5.80;;
72408;SDS011;60402;48.082;11.628;2023-06-10T07:07:21;10.38;;;5.85;;
72408;SDS011;60402;48.082;11.628;2023-06-10T07:10:07;9.98;;;5.72;;
72408;SDS011;60402;48.082;11.628;2023-06-10T07:12:53;10.20;;;5.60;;
72408;SDS011;60402;48.082;11.628;2023-06-10T07:15:39;9.82;;;5.82;;
72408;SDS011;60402;48.082;11.628;2023-06-10T07:18:24;8.65;;;4.97;;
72408;SDS011;60402;48.082;11.628;2023-06-10T07:21:10;9.25;;;5.22;;
72408;SDS011;60402;48.082;11.628;2023-06-10T07:23:56;8.30;;;4.90;;
72408;SDS011;60402;48.082;11.628;2023-06-10T07:26:41;8.60;;;5.13;;
72408;SDS011;60402;48.082;11.628;2023-06-10T07:29:27;8.45;;;5.22;;
72408;SDS011;60402;48.082;11.628;2023-06-10T07:32:13;7.60;;;4.72;;
72408;SDS011;60402;48.082;11.628;2023-06-10T07:34:58;8.75;;;4.85;;
72408;SDS011;60402;48.082;11.628;2023-06-10T07:37:44;6.95;;;4.00;;
72408;SDS011;60402;48.082;11.628;2023-06-10T07:40:30;7.75;;;4.80;;
72408;SDS011;60402;48.082;11.628;2023-06-10T07:43:16;7.90;;;4.88;;
72408;SDS011;60402;48.082;11.628;2023-06-10T07:46:02;9.50;;;4.78;;
72408;SDS011;60402;48.082;11.628;2023-06-10T07:48:48;8.00;;;4.78;;
72408;SDS011;60402;48.082;11.628;2023-06-10T07:51:34;7.88;;;4.72;;
72408;SDS011;60402;48.082;11.628;2023-06-10T07:54:20;7.47;;;4.78;;
72408;SDS011;60402;48.082;11.628;2023-06-10T07:57:06;9.68;;;4.82;;
72408;SDS011;60402;48.082;11.628;2023-06-10T07:59:55;8.02;;;5.22;;
72408;SDS011;60402;48.082;11.628;2023-06-10T08:02:42;8.43;;;4.85;;
72408;SDS011;60402;48.082;11.628;2023-06-10T08:05:28;9.35;;;5.65;;
72408;SDS011;60402;48.082;11.628;2023-06-10T08:08:14;7.43;;;4.70;;
72408;SDS011;60402;48.082;11.628;2023-06-10T08:11:00;6.43;;;3.35;;
72408;SDS011;60402;48.082;11.628;2023-06-10T08:13:45;6.53;;;3.53;;
72408;SDS011;60402;48.082;11.628;2023-06-10T08:16:31;6.70;;;3.40;;
72408;SDS011;60402;48.082;11.628;2023-06-10T08:19:17;6.90;;;4.00;;
72408;SDS011;60402;48.082;11.628;2023-06-10T08:22:03;6.72;;;3.45;;
72408;SDS011;60402;48.082;11.628;2023-06-10T08:24:49;6.53;;;3.45;;
72408;SDS011;60402;48.082;11.628;2023-06-10T08:27:34;6.88;;;3.58;;
72408;SDS011;60402;48.082;11.628;2023-06-10T08:30:20;8.20;;;4.30;;
72408;SDS011;60402;48.082;11.628;2023-06-10T08:33:06;6.57;;;3.40;;
72408;SDS011;60402;48.082;11.628;2023-06-10T08:35:51;7.72;;;4.05;;
72408;SDS011;60402;48.082;11.628;2023-06-10T08:38:37;7.00;;;3.55;;
72408;SDS011;60402;48.082;11.628;2023-06-10T08:41:23;6.57;;;3.42;;
72408;SDS011;60402;48.082;11.628;2023-06-10T08:47:16;6.60;;;3.35;;
72408;SDS011;60402;48.082;11.628;2023-06-10T08:50:02;5.97;;;3.40;;
72408;SDS011;60402;48.082;11.628;2023-06-10T08:52:50;6.43;;;3.42;;
72408;SDS011;60402;48.082;11.628;2023-06-10T08:55:41;6.72;;;3.15;;
72408;SDS011;60402;48.082;11.628;2023-06-10T08:58:27;5.38;;;2.83;;
72408;SDS011;60402;48.082;11.628;2023-06-10T09:01:14;5.80;;;2.85;;
72408;SDS011;60402;48.082;11.628;2023-06-10T09:04:02;5.20;;;2.95;;
72408;SDS011;60402;48.082;11.628;2023-06-10T09:06:48;5.20;;;2.67;;
72408;SDS011;60402;48.082;11.628;2023-06-10T09:09:34;5.50;;;2.72;;
72408;SDS011;60402;48.082;11.628;2023-06-10T09:12:20;5.03;;;2.78;;
72408;SDS011;60402;48.082;11.628;2023-06-10T09:15:06;9.20;;;3.03;;
72408;SDS011;60402;48.082;11.628;2023-06-10T09:17:52;5.82;;;2.80;;
72408;SDS011;60402;48.082;11.628;2023-06-10T09:20:38;5.75;;;2.88;;
72408;SDS011;60402;48.082;11.628;2023-06-10T09:23:25;5.80;;;2.80;;
72408;SDS011;60402;48.082;11.628;2023-06-10T09:26:11;5.32;;;2.83;;
72408;SDS011;60402;48.082;11.628;2023-06-10T09:29:03;7.03;;;2.97;;
72408;SDS011;60402;48.082;11.628;2023-06-10T09:31:50;5.90;;;2.80;;
72408;SDS011;60402;48.082;11.628;2023-06-10T09:34:36;5.18;;;2.72;;
72408;SDS011;60402;48.082;11.628;2023-06-10T09:37:22;6.72;;;3.40;;
72408;SDS011;60402;48.082;11.628;2023-06-10T09:40:09;7.68;;;3.85;;
72408;SDS011;60402;48.082;11.628;2023-06-10T09:42:56;6.28;;;3.33;;
72408;SDS011;60402;48.082;11.628;2023-06-10T09:45:43;6.15;;;3.20;;
72408;SDS011;60402;48.082;11.628;2023-06-10T09:48:28;6.57;;;3.00;;
72408;SDS011;60402;48.082;11.628;2023-06-10T09:51:14;5.82;;;3.20;;
72408;SDS011;60402;48.082;11.628;2023-06-10T09:54:02;5.90;;;3.13;;
72408;SDS011;60402;48.082;11.628;2023-06-10T09:56:49;8.80;;;3.40;;
72408;SDS011;60402;48.082;11.628;2023-06-10T09:59:37;6.55;;;3.47;;
72408;SDS011;60402;48.082;11.628;2023-06-10T10:02:23;7.10;;;3.70;;
72408;SDS011;60402;48.082;11.628;2023-06-10T10:05:09;6.65;;;3.65;;
72408;SDS011;60402;48.082;11.628;2023-06-10T10:07:54;6.20;;;3.20;;
72408;SDS011;60402;48.082;11.628;2023-06-10T10:10:41;7.65;;;3.63;;
72408;SDS011;60402;48.082;11.628;2023-06-10T10:13:27;6.75;;;3.40;;
72408;SDS011;60402;48.082;11.628;2023-06-10T10:16:17;7.47;;;3.30;;
72408;SDS011;60402;48.082;11.628;2023-06-10T10:19:07;5.43;;;2.83;;
72408;SDS011;60402;48.082;11.628;2023-06-10T10:22:01;7.30;;;3.05;;
72408;SDS011;60402;48.082;11.628;2023-06-10T10:24:51;5.53;;;3.08;;
72408;SDS011;60402;48.082;11.628;2023-06-10T10:27:43;5.60;;;3.35;;
72408;SDS011;60402;48.082;11.628;2023-06-10T10:30:35;6.72;;;2.97;;
72408;SDS011;60402;48.082;11.628;2023-06-10T10:33:31;6.22;;;2.90;;
72408;SDS011;60402;48.082;11.628;2023-06-10T10:36:21;5.97;;;3.13;;
72408;SDS011;60402;48.082;11.628;2023-06-10T10:39:07;5.78;;;3.13;;
72408;SDS011;60402;48.082;11.628;2023-06-10T10:41:54;5.90;;;3.13;;
72408;SDS011;60402;48.082;11.628;2023-06-10T10:44:41;6.10;;;3.05;;
72408;SDS011;60402;48.082;11.628;2023-06-10T10:47:27;4.43;;;2.42;;
72408;SDS011;60402;48.082;11.628;2023-06-10T10:50:15;5.97;;;3.30;;
72408;SDS011;60402;48.082;11.628;2023-06-10T10:53:03;6.32;;;3.05;;
72408;SDS011;60402;48.082;11.628;2023-06-10T10:59:05;6.13;;;2.90;;
72408;SDS011;60402;48.082;11.628;2023-06-10T11:01:51;5.85;;;2.80;;
72408;SDS011;60402;48.082;11.628;2023-06-10T11:04:38;5.07;;;2.80;;
72408;SDS011;60402;48.082;11.628;2023-06-10T11:07:30;5.45;;;2.80;;
72408;SDS011;60402;48.082;11.628;2023-06-10T11:10:17;5.70;;;2.92;;
72408;SDS011;60402;48.082;11.628;2023-06-10T11:13:09;5.53;;;2.70;;
72408;SDS011;60402;48.082;11.628;2023-06-10T11:15:58;5.53;;;2.65;;
72408;SDS011;60402;48.082;11.628;2023-06-10T11:18:44;5.38;;;2.78;;
72408;SDS011;60402;48.082;11.628;2023-06-10T11:24:49;6.07;;;2.70;;
72408;SDS011;60402;48.082;11.628;2023-06-10T11:27:38;4.25;;;2.30;;
72408;SDS011;60402;48.082;11.628;2023-06-10T11:30:25;4.97;;;2.42;;
72408;SDS011;60402;48.082;11.628;2023-06-10T11:33:14;4.53;;;2.20;;
72408;SDS011;60402;48.082;11.628;2023-06-10T11:36:02;5.38;;;2.53;;
72408;SDS011;60402;48.082;11.628;2023-06-10T11:38:56;6.65;;;2.35;;
72408;SDS011;60402;48.082;11.628;2023-06-10T11:41:43;5.22;;;2.50;;
72408;SDS011;60402;48.082;11.628;2023-06-10T11:50:04;4.15;;;2.10;;
72408;SDS011;60402;48.082;11.628;2023-06-10T11:52:50;4.32;;;2.10;;
72408;SDS011;60402;48.082;11.628;2023-06-10T11:55:45;4.15;;;2.00;;
72408;SDS011;60402;48.082;11.628;2023-06-10T11:58:31;4.60;;;2.17;;
72408;SDS011;60402;48.082;11.628;2023-06-10T12:01:21;5.05;;;2.33;;
72408;SDS011;60402;48.082;11.628;2023-06-10T12:04:09;4.82;;;2.17;;
72408;SDS011;60402;48.082;11.628;2023-06-10T12:06:56;3.88;;;2.03;;
72408;SDS011;60402;48.082;11.628;2023-06-10T12:09:42;4.22;;;2.05;;
72408;SDS011;60402;48.082;11.628;2023-06-10T12:12:27;4.85;;;2.17;;
72408;SDS011;60402;48.082;11.628;2023-06-10T12:15:19;4.10;;;2.17;;
72408;SDS011;60402;48.082;11.628;2023-06-10T12:18:09;3.63;;;1.80;;
72408;SDS011;60402;48.082;11.628;2023-06-10T12:21:15;4.22;;;1.92;;
72408;SDS011;60402;48.082;11.628;2023-06-10T12:26:54;4.30;;;2.00;;
72408;SDS011;60402;48.082;11.628;2023-06-10T12:29:50;3.47;;;1.77;;
72408;SDS011;60402;48.082;11.628;2023-06-10T12:32:40;3.22;;;1.77;;
72408;SDS011;60402;48.082;11.628;2023-06-10T12:35:29;3.30;;;1.63;;
72408;SDS011;60402;48.082;11.628;2023-06-10T12:38:22;4.22;;;1.80;;
72408;SDS011;60402;48.082;11.628;2023-06-10T12:41:09;4.07;;;1.80;;
72408;SDS011;60402;48.082;11.628;2023-06-10T12:43:55;3.65;;;1.75;;
72408;SDS011;60402;48.082;11.628;2023-06-10T12:46:41;4.30;;;1.80;;
72408;SDS011;60402;48.082;11.628;2023-06-10T12:49:27;3.38;;;1.73;;
72408;SDS011;60402;48.082;11.628;2023-06-10T12:52:13;4.35;;;2.00;;
72408;SDS011;60402;48.082;11.628;2023-06-10T12:54:58;4.78;;;2.40;;
72408;SDS011;60402;48.082;11.628;2023-06-10T12:57:49;4.43;;;2.28;;
72408;SDS011;60402;48.082;11.628;2023-06-10T13:00:36;4.45;;;2.35;;
72408;SDS011;60402;48.082;11.628;2023-06-10T13:03:21;4.72;;;2.20;;
72408;SDS011;60402;48.082;11.628;2023-06-10T13:06:07;5.15;;;2.70;;
72408;SDS011;60402;48.082;11.628;2023-06-10T13:08:53;6.70;;;3.00;;
72408;SDS011;60402;48.082;11.628;2023-06-10T13:11:39;5.78;;;3.15;;
72408;SDS011;60402;48.082;11.628;2023-06-10T13:14:26;4.82;;;2.70;;
72408;SDS011;60402;48.082;11.628;2023-06-10T13:17:11;5.97;;;2.90;;
72408;SDS011;60402;48.082;11.628;2023-06-10T13:19:57;5.22;;;2.63;;
72408;SDS011;60402;48.082;11.628;2023-06-10T13:22:43;5.95;;;3.13;;
72408;SDS011;60402;48.082;11.628;2023-06-10T13:25:28;5.95;;;3.08;;
72408;SDS011;60402;48.082;11.628;2023-06-10T13:28:14;5.20;;;2.85;;
72408;SDS011;60402;48.082;11.628;2023-06-10T13:31:00;5.10;;;2.80;;
72408;SDS011;60402;48.082;11.628;2023-06-10T13:33:46;5.45;;;2.78;;
72408;SDS011;60402;48.082;11.628;2023-06-10T13:36:32;5.80;;;2.80;;
72408;SDS011;60402;48.082;11.628;2023-06-10T13:39:18;6.18;;;3.05;;
72408;SDS011;60402;48.082;11.628;2023-06-10T13:42:04;5.82;;;2.90;;
72408;SDS011;60402;48.082;11.628;2023-06-10T13:44:50;6.03;;;2.67;;
72408;SDS011;60402;48.082;11.628;2023-06-10T13:47:36;6.57;;;3.25;;
72408;SDS011;60402;48.082;11.628;2023-06-10T13:50:23;5.10;;;2.55;;
72408;SDS011;60402;48.082;11.628;2023-06-10T13:53:08;5.38;;;2.70;;
72408;SDS011;60402;48.082;11.628;2023-06-10T13:55:54;5.25;;;2.67;;
72408;SDS011;60402;48.082;11.628;2023-06-10T13:58:40;4.93;;;2.30;;
72408;SDS011;60402;48.082;11.628;2023-06-10T14:01:26;6.00;;;2.30;;
72408;SDS011;60402;48.082;11.628;2023-06-10T14:04:12;5.70;;;2.70;;
72408;SDS011;60402;48.082;11.628;2023-06-10T14:06:58;4.32;;;2.08;;
72408;SDS011;60402;48.082;11.628;2023-06-10T14:09:44;5.55;;;2.30;;
72408;SDS011;60402;48.082;11.628;2023-06-10T14:12:30;4.32;;;2.15;;
72408;SDS011;60402;48.082;11.628;2023-06-10T14:15:16;4.25;;;2.10;;
72408;SDS011;60402;48.082;11.628;2023-06-10T14:18:01;6.07;;;2.40;;
72408;SDS011;60402;48.082;11.628;2023-06-10T14:20:47;3.63;;;1.80;;
72408;SDS011;60402;48.082;11.628;2023-06-10T14:23:33;4.70;;;2.28;;
72408;SDS011;60402;48.082;11.628;2023-06-10T14:26:19;5.50;;;2.70;;
72408;SDS011;60402;48.082;11.628;2023-06-10T14:29:06;4.90;;;2.20;;
72408;SDS011;60402;48.082;11.628;2023-06-10T14:31:54;4.90;;;2.60;;
72408;SDS011;60402;48.082;11.628;2023-06-10T14:34:40;4.72;;;2.30;;
72408;SDS011;60402;48.082;11.628;2023-06-10T14:37:27;7.30;;;2.95;;
72408;SDS011;60402;48.082;11.628;2023-06-10T14:40:13;5.40;;;2.63;;
72408;SDS011;60402;48.082;11.628;2023-06-10T14:42:58;4.78;;;2.50;;
72408;SDS011;60402;48.082;11.628;2023-06-10T14:45:45;6.05;;;2.35;;
72408;SDS011;60402;48.082;11.628;2023-06-10T14:48:31;4.68;;;2.20;;
72408;SDS011;60402;48.082;11.628;2023-06-10T14:51:16;4.68;;;2.20;;
72408;SDS011;60402;48.082;11.628;2023-06-10T14:54:02;5.15;;;2.47;;
72408;SDS011;60402;48.082;11.628;2023-06-10T14:56:48;4.38;;;2.05;;
72408;SDS011;60402;48.082;11.628;2023-06-10T14:59:33;3.97;;;2.10;;
72408;SDS011;60402;48.082;11.628;2023-06-10T15:02:19;4.50;;;2.25;;
72408;SDS011;60402;48.082;11.628;2023-06-10T15:05:05;4.13;;;2.17;;
72408;SDS011;60402;48.082;11.628;2023-06-10T15:07:51;5.70;;;3.40;;
72408;SDS011;60402;48.082;11.628;2023-06-10T15:10:37;5.93;;;3.13;;
72408;SDS011;60402;48.082;11.628;2023-06-10T15:13:22;6.32;;;3.20;;
72408;SDS011;60402;48.082;11.628;2023-06-10T15:16:08;8.13;;;3.13;;
72408;SDS011;60402;48.082;11.628;2023-06-10T15:18:53;6.85;;;3.30;;
72408;SDS011;60402;48.082;11.628;2023-06-10T15:21:39;5.95;;;3.20;;
72408;SDS011;60402;48.082;11.628;2023-06-10T15:24:25;6.00;;;2.85;;
72408;SDS011;60402;48.082;11.628;2023-06-10T15:27:10;4.97;;;2.72;;
72408;SDS011;60402;48.082;11.628;2023-06-10T15:29:56;6.20;;;3.00;;
72408;SDS011;60402;48.082;11.628;2023-06-10T15:32:42;6.97;;;2.70;;
72408;SDS011;60402;48.082;11.628;2023-06-10T15:35:27;5.47;;;2.50;;
72408;SDS011;60402;48.082;11.628;2023-06-10T15:38:13;5.30;;;2.60;;
72408;SDS011;60402;48.082;11.628;2023-06-10T15:40:59;5.05;;;2.65;;
72408;SDS011;60402;48.082;11.628;2023-06-10T15:43:45;4.68;;;2.45;;
72408;SDS011;60402;48.082;11.628;2023-06-10T15:46:31;5.40;;;2.78;;
72408;SDS011;60402;48.082;11.628;2023-06-10T15:49:19;6.22;;;2.95;;
72408;SDS011;60402;48.082;11.628;2023-06-10T15:52:05;6.00;;;3.00;;
72408;SDS011;60402;48.082;11.628;2023-06-10T15:54:51;5.50;;;2.88;;
72408;SDS011;60402;48.082;11.628;2023-06-10T15:57:36;6.55;;;3.15;;
72408;SDS011;60402;48.082;11.628;2023-06-10T16:00:22;5.70;;;3.03;;
72408;SDS011;60402;48.082;11.628;2023-06-10T16:03:08;5.25;;;2.80;;
72408;SDS011;60402;48.082;11.628;2023-06-10T16:05:54;5.28;;;2.90;;
72408;SDS011;60402;48.082;11.628;2023-06-10T16:08:39;6.75;;;3.13;;
72408;SDS011;60402;48.082;11.628;2023-06-10T16:11:25;7.15;;;3.42;;
72408;SDS011;60402;48.082;11.628;2023-06-10T16:14:11;6.32;;;3.00;;
72408;SDS011;60402;48.082;11.628;2023-06-10T16:16:58;5.95;;;3.17;;
72408;SDS011;60402;48.082;11.628;2023-06-10T16:19:44;6.30;;;3.60;;
72408;SDS011;60402;48.082;11.628;2023-06-10T16:22:29;6.15;;;3.35;;
72408;SDS011;60402;48.082;11.628;2023-06-10T16:25:15;6.85;;;3.70;;
72408;SDS011;60402;48.082;11.628;2023-06-10T16:28:01;7.28;;;3.47;;
72408;SDS011;60402;48.082;11.628;2023-06-10T16:30:49;6.55;;;3.53;;
72408;SDS011;60402;48.082;11.628;2023-06-10T16:33:35;6.10;;;3.22;;
72408;SDS011;60402;48.082;11.628;2023-06-10T16:36:21;6.53;;;3.20;;
72408;SDS011;60402;48.082;11.628;2023-06-10T16:39:07;6.13;;;3.17;;
72408;SDS011;60402;48.082;11.628;2023-06-10T16:41:53;6.68;;;3.30;;
72408;SDS011;60402;48.082;11.628;2023-06-10T16:44:39;6.50;;;3.75;;